Date,TemperatureHighF,TemperatureAvgF,TemperatureLowF,DewpointHighF,DewpointAvgF,DewpointLowF,HumidityHigh,HumidityAvg,HumidityLow,PressureMaxIn,PressureMinIn,WindSpeedMaxMPH,WindSpeedAvgMPH,GustSpeedMaxMPH,PrecipitationSumIn
2013-1-1,46.6,43.1,38.3,38.1,25.4,13.4,80,51,32,30.08,29.90,6,0,6,0.20
2013-1-2,46.6,41.4,37.0,39.0,26.0,16.4,84,56,32,30.20,29.93,6,0,6,0.08
2013-1-3,42.1,36.4,32.0,21.4,17.4,10.2,60,46,35,30.26,30.14,4,0,4,0.00
2013-1-4,45.5,34.7,27.1,12.1,8.7,4.1,50,35,20,30.32,30.14,10,1,10,0.00
2013-1-5,48.9,38.3,28.2,17.0,10.0,4.3,42,32,16,30.37,30.20,6,1,6,0.00
2013-1-6,52.0,42.4,36.3,25.5,21.0,15.9,60,43,28,30.20,29.99,8,0,8,0.04
2013-1-7,47.5,39.0,32.2,18.1,14.7,11.8,49,37,27,30.43,30.17,6,0,6,0.04
2013-1-8,51.8,39.9,28.9,26.8,21.6,15.2,60,48,31,30.46,30.32,6,0,6,0.04
2013-1-9,63.5,50.4,38.8,40.2,33.6,24.7,69,54,35,30.40,30.29,6,1,6,0.00
2013-1-10,57.9,50.7,44.2,39.3,23.3,11.3,62,36,17,30.52,30.37,6,0,6,0.00
2013-1-11,45.7,42.1,39.4,40.8,32.7,21.0,83,71,40,30.40,30.14,5,0,5,0.12
2013-1-12,67.3,55.5,45.1,60.0,47.8,40.3,89,76,49,30.14,30.05,4,0,4,0.00
2013-1-13,71.1,60.3,52.2,58.9,47.8,41.6,87,66,36,30.08,29.96,9,2,9,0.00
2013-1-14,61.7,57.6,46.9,56.2,51.1,40.8,91,79,64,30.20,30.02,9,1,9,1.57
2013-1-15,46.9,40.1,38.5,42.0,36.2,35.0,88,86,83,30.26,30.11,8,3,8,1.61
2013-1-16,47.5,42.3,37.8,43.5,37.9,33.4,87,84,80,30.11,29.93,6,0,6,0.71
2013-1-17,47.7,40.6,32.9,44.4,35.4,28.4,89,82,66,30.17,29.96,10,2,10,1.61
2013-1-18,38.8,33.4,29.3,29.8,21.5,13.2,88,64,40,30.52,30.17,0,0,0,0.67
2013-1-19,45.9,36.5,28.8,19.0,16.5,14.5,62,45,29,30.49,30.11,6,2,7,0.20
2013-1-20,54.1,42.1,33.6,22.5,16.7,12.1,48,36,21,30.11,29.96,10,1,10,0.24
2013-1-21,52.0,40.7,31.3,18.3,10.8,-2.6,47,31,18,30.08,29.84,11,2,11,0.24
2013-1-22,35.4,27.7,21.6,-1.6,-9.2,-13.3,21,19,17,30.32,29.96,10,2,10,0.00
2013-1-23,36.5,27.6,18.3,4.9,-7.2,-15.9,34,21,17,30.37,30.05,9,1,9,0.00
2013-1-24,33.3,28.9,20.8,7.1,-4.1,-13.6,35,24,18,30.55,29.99,12,2,12,0.00
2013-1-25,25.9,22.6,19.0,14.3,1.4,-12.6,61,41,22,30.55,30.11,6,1,6,0.00
2013-1-26,37.8,30.7,23.2,20.7,14.0,8.2,69,51,34,30.40,30.11,4,0,4,0.04
2013-1-27,38.8,31.8,23.5,14.3,10.3,5.3,48,40,32,30.58,30.40,4,0,4,0.04
2013-1-28,51.6,41.2,33.1,32.4,24.9,14.0,70,53,36,30.46,30.17,8,1,8,0.04
2013-1-29,66.7,52.7,40.8,44.3,36.1,28.5,82,57,24,30.17,29.99,6,1,6,0.04
2013-1-30,67.8,63.3,54.9,56.0,49.8,42.0,82,62,40,29.99,29.34,13,5,13,1.02
2013-1-31,54.9,41.2,32.5,48.5,15.6,1.5,79,37,19,29.96,29.37,13,3,13,0.12